createdAt,value
2023-01-28T00:02:14.516Z,2.30
2023-01-28T00:04:42.688Z,2.40
2023-01-28T00:07:10.835Z,2.30
2023-01-28T00:09:44.506Z,2.40
2023-01-28T00:12:17.674Z,2.30
2023-01-28T00:14:48.369Z,2.30
2023-01-28T00:17:19.940Z,2.20
2023-01-28T00:19:51.186Z,2.30
2023-01-28T00:22:20.702Z,2.30
2023-01-28T00:24:54.438Z,2.30
2023-01-28T00:27:22.579Z,2.30
2023-01-28T00:29:50.778Z,2.40
2023-01-28T00:32:19.000Z,2.40
2023-01-28T00:34:47.182Z,2.20
2023-01-28T00:37:15.325Z,2.30
2023-01-28T00:39:43.490Z,2.30
2023-01-28T00:42:13.003Z,2.40
2023-01-28T00:44:41.169Z,2.40
2023-01-28T00:47:09.576Z,2.30
2023-01-28T00:49:37.741Z,2.30
2023-01-28T00:52:06.228Z,2.40
2023-01-28T00:54:34.398Z,2.40
2023-01-28T00:57:02.557Z,2.30
2023-01-28T00:59:32.066Z,2.20
2023-01-28T01:02:12.272Z,2.10
2023-01-28T01:04:40.761Z,2.20
2023-01-28T01:07:09.004Z,2.20
2023-01-28T01:09:37.306Z,2.30
2023-01-28T01:12:05.765Z,2.30
2023-01-28T01:14:35.697Z,2.40
2023-01-28T01:17:03.900Z,2.40
2023-01-28T01:19:32.469Z,2.10
2023-01-28T01:22:01.621Z,1.90
2023-01-28T01:24:33.993Z,1.90
2023-01-28T01:27:02.262Z,2.00
2023-01-28T01:29:30.451Z,2.10
2023-01-28T01:32:00.038Z,2.20
2023-01-28T01:34:28.287Z,2.10
2023-01-28T01:36:56.430Z,2.20
2023-01-28T01:39:24.604Z,2.10
2023-01-28T01:41:52.904Z,2.20
2023-01-28T01:45:03.766Z,2.30
2023-01-28T01:47:42.396Z,2.30
2023-01-28T01:50:19.817Z,2.30
2023-01-28T01:52:50.553Z,2.30
2023-01-28T01:55:22.456Z,2.10
2023-01-28T01:57:53.246Z,2.10
2023-01-28T02:00:21.742Z,2.00
2023-01-28T02:02:52.977Z,1.90
2023-01-28T02:05:23.030Z,2.00
2023-01-28T02:08:16.211Z,2.10
2023-01-28T02:10:44.746Z,2.10
2023-01-28T02:13:13.226Z,2.20
2023-01-28T02:15:41.808Z,2.30
2023-01-28T02:18:11.806Z,2.30
2023-01-28T02:20:57.485Z,2.40
2023-01-28T02:23:51.615Z,2.40
2023-01-28T02:26:48.220Z,2.40
2023-01-28T02:29:27.344Z,2.40
2023-01-28T02:32:04.665Z,2.50
2023-01-28T02:34:40.314Z,2.50
2023-01-28T02:37:21.896Z,2.40
2023-01-28T02:39:52.961Z,2.50
2023-01-28T02:42:26.856Z,2.50
2023-01-28T02:45:00.721Z,2.50
2023-01-28T02:47:46.211Z,2.60
2023-01-28T02:50:20.025Z,2.60
2023-01-28T02:53:26.594Z,2.50
2023-01-28T02:56:01.135Z,2.60
2023-01-28T02:58:36.664Z,2.40
2023-01-28T03:01:16.490Z,2.20
2023-01-28T03:03:53.429Z,2.30
2023-01-28T03:06:25.185Z,2.30
2023-01-28T03:09:13.422Z,2.30
2023-01-28T03:12:02.110Z,2.30
2023-01-28T03:14:51.017Z,2.10
2023-01-28T03:17:44.150Z,2.30
2023-01-28T03:20:33.977Z,2.30
2023-01-28T03:23:27.225Z,2.30
2023-01-28T03:26:19.358Z,2.30
2023-01-28T03:29:09.219Z,2.20
2023-01-28T03:31:57.105Z,2.20
2023-01-28T03:34:49.246Z,2.40
2023-01-28T03:37:18.006Z,2.40
2023-01-28T03:39:48.492Z,2.40
2023-01-28T03:42:19.269Z,2.40
2023-01-28T03:44:57.343Z,2.40
2023-01-28T03:47:31.121Z,2.40
2023-01-28T03:50:02.229Z,2.40
2023-01-28T03:52:33.146Z,2.30
2023-01-28T03:55:03.389Z,2.30
2023-01-28T03:57:33.109Z,2.30
2023-01-28T04:00:06.290Z,2.20
2023-01-28T04:02:51.617Z,2.20
2023-01-28T04:05:29.025Z,2.30
2023-01-28T04:07:59.407Z,2.30
2023-01-28T04:10:30.056Z,2.30
2023-01-28T04:13:03.475Z,2.20
2023-01-28T04:15:33.930Z,2.30
2023-01-28T04:18:02.042Z,2.40
2023-01-28T04:20:32.236Z,2.40
2023-01-28T04:23:01.213Z,2.30
2023-01-28T04:25:30.682Z,2.30
2023-01-28T04:28:01.267Z,2.30
2023-01-28T04:30:29.514Z,2.40
2023-01-28T04:33:01.033Z,2.30
2023-01-28T04:35:31.600Z,2.30
2023-01-28T04:37:59.963Z,2.30
2023-01-28T04:40:30.487Z,2.40
2023-01-28T04:43:01.398Z,2.40
2023-01-28T04:45:31.644Z,2.40
2023-01-28T04:48:02.719Z,2.40
2023-01-28T04:50:34.381Z,2.40
2023-01-28T04:53:04.907Z,2.40
2023-01-28T04:55:35.629Z,2.40
2023-01-28T04:58:03.873Z,2.40
2023-01-28T05:00:35.435Z,2.30
2023-01-28T05:06:02.169Z,2.00
2023-01-28T05:08:35.658Z,2.00
2023-01-28T05:11:09.104Z,1.90
2023-01-28T05:13:41.274Z,1.90
2023-01-28T05:16:15.154Z,1.90
2023-01-28T05:18:46.247Z,1.90
2023-01-28T05:21:26.032Z,1.90
2023-01-28T05:23:56.703Z,1.90
2023-01-28T05:26:26.189Z,1.80
2023-01-28T05:28:54.350Z,1.80
2023-01-28T05:31:23.744Z,1.90
2023-01-28T05:33:55.020Z,1.90
2023-01-28T05:36:24.832Z,2.00
2023-01-28T05:38:55.339Z,2.10
2023-01-28T05:41:25.624Z,2.10
2023-01-28T05:43:53.844Z,2.20
2023-01-28T05:46:25.235Z,2.20
2023-01-28T05:48:55.735Z,2.20
2023-01-28T05:51:28.850Z,2.20
2023-01-28T05:53:59.572Z,2.20
2023-01-28T05:56:42.145Z,2.30
2023-01-28T05:59:13.826Z,2.30
2023-01-28T06:01:45.123Z,2.20
2023-01-28T06:04:15.927Z,2.20
2023-01-28T06:06:46.598Z,2.30
2023-01-28T06:09:18.411Z,2.30
2023-01-28T06:11:51.500Z,2.30
2023-01-28T06:14:19.619Z,2.20
2023-01-28T06:16:49.168Z,2.20
2023-01-28T06:19:21.009Z,2.20
2023-01-28T06:21:58.325Z,2.10
2023-01-28T06:24:26.584Z,2.30
2023-01-28T06:26:58.689Z,2.30
2023-01-28T06:29:35.181Z,2.30
2023-01-28T06:32:05.907Z,2.30
2023-01-28T06:34:36.895Z,2.30
2023-01-28T06:37:11.516Z,2.30
2023-01-28T06:39:42.663Z,2.30
2023-01-28T06:42:20.038Z,2.10
2023-01-28T06:44:50.523Z,2.30
2023-01-28T06:47:19.816Z,2.20
2023-01-28T06:49:51.448Z,2.30
2023-01-28T06:52:23.028Z,2.10
2023-01-28T06:54:51.152Z,2.10
2023-01-28T06:57:22.319Z,2.20
2023-01-28T07:00:02.532Z,2.10
2023-01-28T07:02:33.429Z,2.00
2023-01-28T07:05:04.435Z,2.00
2023-01-28T07:07:41.489Z,1.90
2023-01-28T07:12:58.738Z,1.90
2023-01-28T07:15:27.175Z,2.00
2023-01-28T07:17:58.706Z,1.90
2023-01-28T07:20:30.965Z,2.00
2023-01-28T07:23:10.242Z,2.10
2023-01-28T07:25:41.090Z,2.20
2023-01-28T07:28:09.680Z,2.10
2023-01-28T07:30:41.364Z,1.90
2023-01-28T07:33:12.857Z,1.80
2023-01-28T07:35:40.983Z,1.90
2023-01-28T07:38:10.499Z,1.90
2023-01-28T07:40:42.261Z,1.90
2023-01-28T07:43:17.464Z,1.90
2023-01-28T07:45:48.681Z,1.90
2023-01-28T07:48:18.500Z,1.90
2023-01-28T07:50:49.628Z,1.90
2023-01-28T07:53:35.926Z,1.90
2023-01-28T07:56:08.607Z,1.90
2023-01-28T07:58:39.160Z,1.90
2023-01-28T08:01:08.283Z,1.90
2023-01-28T08:03:38.797Z,2.00
2023-01-28T08:06:09.742Z,2.10
2023-01-28T08:08:48.071Z,2.10
2023-01-28T08:11:16.430Z,2.00
2023-01-28T08:13:45.987Z,2.30
2023-01-28T08:16:16.498Z,2.30
2023-01-28T08:18:45.819Z,2.10
2023-01-28T08:21:16.390Z,2.20
2023-01-28T08:23:48.404Z,2.30
2023-01-28T08:26:16.536Z,2.40
2023-01-28T08:28:49.945Z,2.50
2023-01-28T08:31:20.205Z,2.40
2023-01-28T08:34:03.228Z,2.40
2023-01-28T08:36:31.792Z,2.50
2023-01-28T08:39:17.199Z,2.60
2023-01-28T08:42:02.739Z,2.50
2023-01-28T08:44:33.198Z,2.50
2023-01-28T08:47:03.802Z,2.50
2023-01-28T08:49:37.853Z,2.50
2023-01-28T08:52:06.421Z,2.50
2023-01-28T08:54:37.074Z,2.50
2023-01-28T08:57:08.177Z,2.50
2023-01-28T08:59:47.096Z,2.60
2023-01-28T09:02:31.079Z,2.60
2023-01-28T09:05:03.565Z,2.50
2023-01-28T09:07:32.012Z,2.40
2023-01-28T09:10:09.520Z,2.30
2023-01-28T09:12:37.712Z,2.50
2023-01-28T09:15:10.704Z,2.50
2023-01-28T09:17:40.374Z,2.40
2023-01-28T09:20:13.140Z,2.50
2023-01-28T09:22:41.670Z,2.40
2023-01-28T09:25:15.853Z,2.40
2023-01-28T09:27:47.274Z,2.40
2023-01-28T09:30:16.181Z,2.40
2023-01-28T09:32:46.603Z,2.40
2023-01-28T09:35:19.046Z,2.40
2023-01-28T09:37:50.331Z,2.40
2023-01-28T09:40:31.440Z,2.50
2023-01-28T09:43:15.391Z,2.40
2023-01-28T09:45:49.317Z,2.40
2023-01-28T09:48:28.756Z,2.40
2023-01-28T09:51:01.616Z,2.60
2023-01-28T09:53:38.990Z,2.60
2023-01-28T09:56:27.566Z,2.60
2023-01-28T09:58:58.527Z,2.60
2023-01-28T10:01:46.638Z,2.60
2023-01-28T10:04:29.687Z,2.50
2023-01-28T10:07:08.645Z,2.60
2023-01-28T10:09:44.391Z,2.70
2023-01-28T10:12:37.481Z,2.70
2023-01-28T10:15:32.706Z,2.70
2023-01-28T10:18:16.437Z,2.70
2023-01-28T10:20:51.205Z,2.60
2023-01-28T10:23:29.035Z,2.70
2023-01-28T10:25:59.497Z,2.80
2023-01-28T10:28:32.890Z,2.80
2023-01-28T10:31:05.206Z,2.80
2023-01-28T10:33:43.606Z,2.90
2023-01-28T10:36:15.247Z,2.90
2023-01-28T10:38:45.612Z,2.80
2023-01-28T10:41:25.828Z,2.90
2023-01-28T10:44:20.312Z,2.90
2023-01-28T10:46:51.278Z,3.00
2023-01-28T10:49:28.571Z,3.10
2023-01-28T10:51:56.694Z,3.00
2023-01-28T10:54:27.544Z,3.10
2023-01-28T10:57:06.655Z,3.10
2023-01-28T10:59:45.957Z,3.20
2023-01-28T11:02:35.156Z,3.30
2023-01-28T11:05:29.429Z,3.50
2023-01-28T11:08:17.846Z,3.60
2023-01-28T11:10:47.858Z,3.70
2023-01-28T11:13:23.031Z,3.80
2023-01-28T11:15:59.470Z,3.90
2023-01-28T11:18:29.765Z,4.20
2023-01-28T11:21:04.783Z,4.30
2023-01-28T11:23:39.679Z,4.10
2023-01-28T11:26:12.925Z,4.10
2023-01-28T11:28:44.202Z,4.40
2023-01-28T11:31:19.772Z,4.60
2023-01-28T11:33:54.249Z,4.60
2023-01-28T11:36:38.852Z,4.60
2023-01-28T11:39:29.867Z,4.50
2023-01-28T11:42:14.385Z,4.60
2023-01-28T11:44:44.414Z,4.60
2023-01-28T11:47:32.185Z,4.60
2023-01-28T11:50:17.100Z,4.60
2023-01-28T11:53:06.756Z,4.60
2023-01-28T11:55:48.980Z,4.40
2023-01-28T11:58:24.125Z,4.60
2023-01-28T12:01:02.808Z,4.70
2023-01-28T12:03:46.801Z,4.60
2023-01-28T12:07:03.411Z,4.80
2023-01-28T12:09:44.101Z,4.80
2023-01-28T12:12:26.253Z,4.80
2023-01-28T12:15:37.465Z,4.60
2023-01-28T12:18:22.082Z,4.40
2023-01-28T12:21:00.602Z,4.30
2023-01-28T12:23:54.356Z,4.30
2023-01-28T12:26:35.058Z,4.20
2023-01-28T12:29:15.152Z,4.40
2023-01-28T12:32:11.818Z,4.40
2023-01-28T12:35:12.522Z,4.00
2023-01-28T12:37:56.441Z,4.20
2023-01-28T12:40:53.926Z,4.30
2023-01-28T12:43:28.397Z,4.30
2023-01-28T12:45:59.828Z,4.30
2023-01-28T12:48:34.437Z,4.30
2023-01-28T12:51:09.287Z,4.20
2023-01-28T12:53:45.190Z,4.10
2023-01-28T12:56:19.460Z,4.10
2023-01-28T12:58:55.642Z,4.00
2023-01-28T13:01:31.461Z,3.90
2023-01-28T13:04:08.108Z,3.90
2023-01-28T13:06:43.234Z,3.80
2023-01-28T13:09:18.783Z,3.80
2023-01-28T13:11:49.320Z,3.70
2023-01-28T13:14:18.243Z,3.60
2023-01-28T13:16:46.441Z,3.60
2023-01-28T13:19:25.092Z,3.60
2023-01-28T13:21:53.533Z,3.50
2023-01-28T13:24:32.789Z,3.60
2023-01-28T13:27:13.671Z,3.60
2023-01-28T13:29:41.791Z,3.50
2023-01-28T13:32:32.914Z,3.50
2023-01-28T13:35:03.797Z,3.40
2023-01-28T13:37:35.056Z,3.50
2023-01-28T13:40:21.385Z,3.60
2023-01-28T13:43:00.025Z,3.50
2023-01-28T13:45:29.787Z,3.50
2023-01-28T13:48:03.427Z,3.40
2023-01-28T13:50:40.409Z,3.60
2023-01-28T13:53:21.476Z,3.60
2023-01-28T13:55:56.584Z,3.50
2023-01-28T13:58:41.935Z,3.50
2023-01-28T14:01:35.166Z,3.60
2023-01-28T14:04:25.896Z,3.40
2023-01-28T14:07:20.367Z,3.20
2023-01-28T14:10:09.723Z,3.20
2023-01-28T14:12:57.821Z,3.30
2023-01-28T14:15:58.538Z,3.20
2023-01-28T14:18:29.275Z,3.30
2023-01-28T14:21:01.313Z,3.30
2023-01-28T14:23:32.348Z,3.20
2023-01-28T14:26:16.101Z,3.10
2023-01-28T14:28:55.315Z,2.90
2023-01-28T14:31:29.777Z,3.00
2023-01-28T14:34:11.524Z,3.20
2023-01-28T14:36:42.013Z,3.10
2023-01-28T14:39:18.699Z,3.20
2023-01-28T14:41:50.809Z,3.20
2023-01-28T14:44:30.482Z,3.30
2023-01-28T14:47:34.866Z,3.30
2023-01-28T14:50:23.907Z,3.30
2023-01-28T14:53:05.950Z,3.20
2023-01-28T14:55:41.740Z,3.30
2023-01-28T14:58:17.343Z,3.40
2023-01-28T15:00:56.681Z,3.50
2023-01-28T15:03:25.861Z,3.60
2023-01-28T15:06:07.537Z,3.50
2023-01-28T15:08:36.015Z,3.50
2023-01-28T15:11:06.785Z,3.50
2023-01-28T15:13:39.909Z,3.50
2023-01-28T15:16:17.703Z,3.60
2023-01-28T15:18:47.216Z,3.40
2023-01-28T15:21:20.994Z,3.40
2023-01-28T15:23:53.957Z,3.40
2023-01-28T15:26:25.685Z,3.50
2023-01-28T15:28:56.114Z,3.50
2023-01-28T15:31:28.761Z,3.50
2023-01-28T15:34:02.964Z,3.40
2023-01-28T15:36:33.770Z,3.30
2023-01-28T15:39:02.798Z,3.30
2023-01-28T15:41:36.357Z,3.60
2023-01-28T15:44:05.695Z,3.60
2023-01-28T15:46:35.915Z,3.70
2023-01-28T15:49:05.702Z,3.70
2023-01-28T15:51:35.376Z,3.70
2023-01-28T15:54:06.861Z,3.70
2023-01-28T15:56:36.329Z,3.70
2023-01-28T15:59:28.209Z,3.50
2023-01-28T16:02:26.772Z,3.50
2023-01-28T16:05:03.493Z,3.60
2023-01-28T16:07:37.276Z,3.70
2023-01-28T16:10:06.449Z,3.80
2023-01-28T16:12:35.342Z,3.70
2023-01-28T16:15:06.731Z,3.60
2023-01-28T16:17:43.087Z,3.60
2023-01-28T16:20:24.362Z,3.60
2023-01-28T16:22:56.262Z,3.70
2023-01-28T16:25:30.551Z,3.80
2023-01-28T16:27:59.763Z,3.60
2023-01-28T16:30:29.166Z,3.60
2023-01-28T16:32:58.485Z,3.60
2023-01-28T16:35:42.482Z,3.60
2023-01-28T16:38:19.927Z,3.70
2023-01-28T16:40:49.264Z,3.70
2023-01-28T16:43:19.017Z,3.70
2023-01-28T16:45:48.309Z,3.80
2023-01-28T16:48:17.080Z,3.80
2023-01-28T16:50:47.401Z,3.80
2023-01-28T16:53:22.155Z,3.80
2023-01-28T16:55:53.365Z,3.80
2023-01-28T16:58:27.224Z,3.80
2023-01-28T17:00:56.490Z,3.80
2023-01-28T17:03:25.383Z,3.80
2023-01-28T17:05:54.969Z,3.80
2023-01-28T17:08:23.084Z,3.80
2023-01-28T17:10:54.302Z,3.80
2023-01-28T17:13:22.936Z,3.70
2023-01-28T17:15:51.144Z,3.80
2023-01-28T17:18:19.392Z,3.90
2023-01-28T17:20:47.540Z,3.90
2023-01-28T17:23:18.666Z,3.90
2023-01-28T17:25:46.822Z,3.90
2023-01-28T17:28:14.944Z,3.90
2023-01-28T17:30:43.325Z,3.80
2023-01-28T17:33:11.495Z,3.60
2023-01-28T17:35:39.595Z,3.60
2023-01-28T17:38:07.750Z,3.70
2023-01-28T17:40:37.261Z,3.60
2023-01-28T17:43:05.376Z,3.50
2023-01-28T17:45:33.806Z,3.40
2023-01-28T17:48:02.108Z,3.50
2023-01-28T17:50:30.311Z,3.50
2023-01-28T17:52:58.932Z,3.60
2023-01-28T17:55:27.518Z,3.60
2023-01-28T17:57:57.053Z,3.70
2023-01-28T18:00:26.934Z,3.60
2023-01-28T18:02:55.038Z,3.60
2023-01-28T18:05:23.284Z,3.60
2023-01-28T18:07:52.177Z,3.60
2023-01-28T18:10:20.741Z,3.60
2023-01-28T18:12:48.868Z,3.60
2023-01-28T18:15:18.670Z,3.50
2023-01-28T18:17:46.965Z,3.40
2023-01-28T18:20:15.158Z,3.40
2023-01-28T18:22:43.330Z,3.40
2023-01-28T18:25:16.288Z,3.50
2023-01-28T18:27:44.878Z,3.50
2023-01-28T18:30:16.445Z,3.60
2023-01-28T18:32:46.006Z,3.60
2023-01-28T18:35:14.965Z,3.70
2023-01-28T18:37:43.403Z,3.60
2023-01-28T18:40:12.954Z,3.60
2023-01-28T18:42:41.134Z,3.70
2023-01-28T18:45:09.993Z,3.80
2023-01-28T18:47:38.184Z,3.80
2023-01-28T18:50:08.946Z,3.80
2023-01-28T18:52:37.070Z,3.70
2023-01-28T18:55:05.685Z,3.80
2023-01-28T18:57:33.815Z,3.70
2023-01-28T19:00:01.989Z,3.60
2023-01-28T19:02:30.200Z,3.70
2023-01-28T19:04:58.367Z,3.40
2023-01-28T19:07:27.870Z,3.40
2023-01-28T19:09:55.961Z,3.40
2023-01-28T19:12:24.249Z,3.50
2023-01-28T19:14:52.379Z,3.50
2023-01-28T19:17:20.624Z,3.60
2023-01-28T19:19:48.836Z,3.60
2023-01-28T19:22:17.182Z,3.60
2023-01-28T19:24:46.734Z,3.50
2023-01-28T19:27:14.858Z,3.50
2023-01-28T19:29:43.358Z,3.60
2023-01-28T19:32:11.461Z,3.70
2023-01-28T19:34:39.606Z,3.70
2023-01-28T19:37:07.882Z,3.80
2023-01-28T19:39:36.370Z,3.80
2023-01-28T19:42:05.861Z,3.90
2023-01-28T19:44:34.239Z,3.70
2023-01-28T19:47:02.476Z,3.80
2023-01-28T19:49:31.158Z,3.70
2023-01-28T19:52:00.310Z,3.80
2023-01-28T19:54:28.608Z,3.80
2023-01-28T19:56:56.699Z,3.80
2023-01-28T19:59:26.240Z,3.80
2023-01-28T20:01:54.519Z,3.80
2023-01-28T20:04:22.718Z,3.70
2023-01-28T20:06:51.312Z,3.60
2023-01-28T20:09:20.960Z,3.70
2023-01-28T20:11:49.112Z,3.80
2023-01-28T20:14:18.301Z,3.90
2023-01-28T20:16:48.036Z,3.90
2023-01-28T20:19:18.200Z,3.90
2023-01-28T20:21:47.386Z,3.80
2023-01-28T20:24:16.574Z,3.80
2023-01-28T20:26:45.406Z,3.80
2023-01-28T20:29:17.721Z,3.80
2023-01-28T20:31:57.657Z,3.80
2023-01-28T20:34:35.690Z,3.90
2023-01-28T20:37:06.583Z,3.90
2023-01-28T20:39:34.740Z,3.90
2023-01-28T20:42:03.034Z,3.80
2023-01-28T20:44:32.209Z,3.80
2023-01-28T20:47:02.026Z,3.90
2023-01-28T20:49:30.456Z,3.80
2023-01-28T20:51:58.580Z,3.80
2023-01-28T20:54:26.882Z,3.80
2023-01-28T20:56:57.383Z,3.80
2023-01-28T20:59:25.731Z,3.80
2023-01-28T21:01:55.253Z,3.70
2023-01-28T21:04:26.199Z,3.80
2023-01-28T21:06:54.380Z,3.80
2023-01-28T21:09:25.964Z,3.80
2023-01-28T21:11:55.788Z,3.90
2023-01-28T21:14:26.412Z,3.90
2023-01-28T21:16:54.561Z,3.90
2023-01-28T21:19:22.939Z,3.80
2023-01-28T21:21:52.434Z,3.80
2023-01-28T21:24:20.616Z,3.80
2023-01-28T21:26:48.733Z,3.80
2023-01-28T21:29:18.825Z,3.90
2023-01-28T21:31:47.065Z,3.90
2023-01-28T21:34:16.099Z,3.90
2023-01-28T21:36:44.433Z,3.80
2023-01-28T21:39:13.984Z,3.80
2023-01-28T21:41:42.080Z,3.70
2023-01-28T21:44:13.170Z,3.70
2023-01-28T21:46:41.547Z,3.70
2023-01-28T21:49:11.874Z,3.60
2023-01-28T21:51:40.511Z,3.50
2023-01-28T21:54:12.994Z,3.50
2023-01-28T21:56:43.522Z,3.40
2023-01-28T21:59:30.280Z,3.50
2023-01-28T22:02:00.448Z,3.50
2023-01-28T22:04:30.745Z,3.40
2023-01-28T22:06:59.611Z,3.40
2023-01-28T22:09:28.310Z,3.50
2023-01-28T22:11:57.821Z,3.60
2023-01-28T22:14:25.932Z,3.70
2023-01-28T22:16:54.263Z,3.70
2023-01-28T22:19:22.621Z,3.80
2023-01-28T22:21:50.897Z,3.60
2023-01-28T22:24:22.457Z,3.80
2023-01-28T22:26:51.266Z,3.80
2023-01-28T22:29:22.111Z,3.80
2023-01-28T22:31:51.884Z,3.80
2023-01-28T22:34:21.049Z,3.70
2023-01-28T22:36:49.273Z,3.80
2023-01-28T22:39:18.658Z,3.80
2023-01-28T22:41:47.869Z,3.80
2023-01-28T22:44:16.165Z,3.70
2023-01-28T22:46:45.956Z,3.60
2023-01-28T22:49:15.184Z,3.50
2023-01-28T22:51:43.792Z,3.50
2023-01-28T22:54:14.781Z,3.50
2023-01-28T22:56:43.205Z,3.50
2023-01-28T22:59:12.477Z,3.60
2023-01-28T23:01:41.144Z,3.40
2023-01-28T23:04:10.753Z,3.40
2023-01-28T23:06:39.176Z,3.40
2023-01-28T23:09:07.424Z,3.50
2023-01-28T23:11:35.822Z,3.40
2023-01-28T23:14:22.578Z,3.40
2023-01-28T23:17:08.510Z,3.50
2023-01-28T23:19:55.443Z,3.50
2023-01-28T23:22:43.769Z,3.50
2023-01-28T23:25:12.329Z,3.50
2023-01-28T23:27:41.102Z,3.60
2023-01-28T23:30:11.244Z,3.60
2023-01-28T23:32:41.087Z,3.60
2023-01-28T23:35:11.777Z,3.60
2023-01-28T23:37:40.273Z,3.70
2023-01-28T23:40:09.590Z,3.70
2023-01-28T23:42:37.858Z,3.60
2023-01-28T23:45:07.203Z,3.50
2023-01-28T23:47:35.333Z,3.50
2023-01-28T23:50:03.624Z,3.50
2023-01-28T23:52:33.125Z,3.40
2023-01-28T23:55:01.266Z,3.40
2023-01-28T23:57:29.529Z,3.40
2023-01-28T23:59:57.958Z,3.40
